CMA CGM Musca — 2CAC8 — position and weather

sailwx.info

Track history (hours):
 
Tides and Currents Weather Stations Pressure Air Temp Water Temp Dewpoint Dewpoint Depression Visibility Wind Speed Wind Dir Waves Ship Positions

CMA CGM Musca

Last reported at 2017-Apr-27 22:29 UTC. Time now 2017-Apr-27 22:42 UTC.
Position N 35°12' E 019°32'.

Length 347 m; draft 13.7 m.

Type: Ship (hazmat cat A). MMSI: 235070914.

Date/timePositionNaut miles runAvg speedWind from/ knotsBaromVisibWave heightAir tempDewpointWater temp
2017-Apr-27 22:29N 35°12' E 019°32'1019.2
2017-Apr-27 21:59N 35°11' E 019°44'919.1
2017-Apr-27 21:30N 35°09' E 019°55'1019.0
2017-Apr-27 20:59N 35°08' E 020°07'918.9
2017-Apr-27 20:30N 35°07' E 020°18'1018.3
2017-Apr-27 19:56N 35°05' E 020°31'1118.2
2017-Apr-27 19:19N 35°04' E 020°44'618.5
2017-Apr-27 19:00N 35°03' E 020°51'49518.9
2017-Apr-26 16:50N 34°12' E 030°50'918.8
2017-Apr-26 16:22N 34°12' E 031°01'718.8
2017-Apr-26 15:59N 34°11' E 031°10'918.7
2017-Apr-26 15:30N 34°10' E 031°20'4118.8
2017-Apr-26 13:19N 34°07' E 032°10'618.7
2017-Apr-26 13:00N 34°07' E 032°17'1218.0
2017-Apr-26 12:21N 34°06' E 032°31'14318.5
2017-Apr-26 04:37N 33°55' E 035°23'418.4
2017-Apr-26 04:25N 33°55' E 035°28'31 1.1
2017-Apr-25 00:51N 33°46' E 034°51'  
Track history (hours):
 
Tides and Currents Weather Stations Pressure Air Temp Water Temp Dewpoint Dewpoint Depression Visibility Wind Speed Wind Dir Waves Ship Positions

CMA CGM Musca

Last reported at 2017-Apr-27 22:29 UTC. Time now 2017-Apr-27 22:42 UTC.
Position N 35°12' E 019°32'.

Length 347 m; draft 13.7 m.

Type: Ship (hazmat cat A). MMSI: 235070914.

Date/timePositionNaut miles runAvg speedWind from/ knotsBaromVisibWave heightAir tempDewpointWater temp
2017-Apr-27 22:29N 35°12' E 019°32'1019.2
2017-Apr-27 21:59N 35°11' E 019°44'919.1
2017-Apr-27 21:30N 35°09' E 019°55'1019.0
2017-Apr-27 20:59N 35°08' E 020°07'918.9
2017-Apr-27 20:30N 35°07' E 020°18'1018.3
2017-Apr-27 19:56N 35°05' E 020°31'1118.2
2017-Apr-27 19:19N 35°04' E 020°44'618.5
2017-Apr-27 19:00N 35°03' E 020°51'49518.9
2017-Apr-26 16:50N 34°12' E 030°50'918.8
2017-Apr-26 16:22N 34°12' E 031°01'718.8
2017-Apr-26 15:59N 34°11' E 031°10'918.7
2017-Apr-26 15:30N 34°10' E 031°20'4118.8
2017-Apr-26 13:19N 34°07' E 032°10'618.7
2017-Apr-26 13:00N 34°07' E 032°17'1218.0
2017-Apr-26 12:21N 34°06' E 032°31'14318.5
2017-Apr-26 04:37N 33°55' E 035°23'418.4
2017-Apr-26 04:25N 33°55' E 035°28'31 1.1
2017-Apr-25 00:51N 33°46' E 034°51'  

Dump ship's entire track history